createdAt,value
2022-09-07T00:02:03.889Z,1.30
2022-09-07T00:04:41.464Z,1.38
2022-09-07T00:07:17.677Z,1.40
2022-09-07T00:09:49.444Z,1.67
2022-09-07T00:12:19.905Z,1.33
2022-09-07T00:14:52.142Z,1.75
2022-09-07T00:17:31.460Z,1.88
2022-09-07T00:22:54.008Z,1.27
2022-09-07T00:25:29.045Z,1.77
2022-09-07T00:28:14.201Z,1.73
2022-09-07T00:30:53.322Z,1.60
2022-09-07T00:33:26.735Z,1.25
2022-09-07T00:35:55.090Z,1.70
2022-09-07T00:38:24.475Z,1.70
2022-09-07T00:40:55.168Z,1.55
2022-09-07T00:43:48.789Z,1.55
2022-09-07T00:58:19.604Z,1.58
2022-09-07T01:03:50.694Z,1.52
2022-09-07T01:09:24.038Z,1.73
2022-09-07T01:11:55.746Z,1.27
2022-09-07T01:14:42.267Z,1.55
2022-09-07T01:17:29.567Z,1.23
2022-09-07T01:20:40.491Z,1.55
2022-09-07T01:23:50.929Z,1.50
2022-09-07T01:26:59.273Z,1.17
2022-09-07T01:30:20.202Z,1.73
2022-09-07T01:33:28.350Z,1.38
2022-09-07T01:36:16.805Z,1.30
2022-09-07T01:39:05.157Z,1.70
2022-09-07T01:42:19.335Z,1.35
2022-09-07T01:45:01.331Z,1.23
2022-09-07T01:47:47.208Z,1.73
2022-09-07T01:51:06.577Z,1.15
2022-09-07T01:54:01.943Z,1.60
2022-09-07T01:56:54.066Z,1.23
2022-09-07T01:59:41.101Z,1.20
2022-09-07T02:02:23.580Z,1.70
2022-09-07T02:05:04.180Z,1.23
2022-09-07T02:08:08.109Z,1.67
2022-09-07T02:10:58.777Z,1.40
2022-09-07T02:13:45.090Z,1.35
2022-09-07T02:16:26.343Z,1.48
2022-09-07T02:19:02.549Z,1.40
2022-09-07T02:21:54.380Z,1.05
2022-09-07T02:24:29.860Z,1.63
2022-09-07T02:27:11.727Z,1.52
2022-09-07T02:29:46.919Z,1.50
2022-09-07T02:32:22.347Z,1.60
2022-09-07T02:34:59.095Z,1.38
2022-09-07T02:37:38.132Z,1.50
2022-09-07T02:40:16.100Z,1.90
2022-09-07T02:43:02.047Z,1.63
2022-09-07T02:46:12.506Z,1.50
2022-09-07T02:49:08.919Z,1.60
2022-09-07T02:51:54.474Z,1.33
2022-09-07T02:54:47.452Z,1.48
2022-09-07T02:57:42.188Z,1.60
2022-09-07T03:00:22.076Z,1.23
2022-09-07T03:03:21.146Z,1.63
2022-09-07T03:06:08.244Z,1.50
2022-09-07T03:08:53.384Z,1.88
2022-09-07T03:11:33.462Z,1.55
2022-09-07T03:14:31.801Z,1.90
2022-09-07T03:17:01.542Z,1.60
2022-09-07T03:19:34.540Z,1.40
2022-09-07T03:22:08.456Z,1.63
2022-09-07T03:24:49.521Z,1.70
2022-09-07T03:27:21.625Z,1.75
2022-09-07T03:29:57.815Z,1.45
2022-09-07T03:32:35.433Z,1.88
2022-09-07T03:35:15.429Z,1.15
2022-09-07T03:37:53.982Z,1.43
2022-09-07T03:40:26.382Z,1.30
2022-09-07T03:43:01.247Z,2.08
2022-09-07T03:45:34.331Z,1.77
2022-09-07T03:48:11.069Z,1.70
2022-09-07T03:50:57.054Z,1.58
2022-09-07T03:53:37.931Z,1.73
2022-09-07T03:56:18.383Z,1.60
2022-09-07T03:58:50.851Z,1.35
2022-09-07T04:01:26.155Z,2.20
2022-09-07T04:04:05.506Z,1.77
2022-09-07T04:06:36.595Z,1.60
2022-09-07T04:09:20.087Z,1.92
2022-09-07T04:11:51.055Z,1.30
2022-09-07T04:14:23.402Z,1.38
2022-09-07T04:16:55.132Z,1.93
2022-09-07T04:19:26.934Z,1.63
2022-09-07T04:22:07.626Z,1.75
2022-09-07T04:24:40.047Z,2.27
2022-09-07T04:27:18.504Z,1.57
2022-09-07T04:29:49.443Z,1.80
2022-09-07T04:32:18.083Z,2.30
2022-09-07T04:35:01.582Z,1.95
2022-09-07T04:37:43.177Z,1.70
2022-09-07T04:40:21.855Z,1.90
2022-09-07T04:43:05.618Z,2.20
2022-09-07T04:45:40.058Z,1.77
2022-09-07T04:48:13.642Z,1.83
2022-09-07T04:50:58.042Z,1.87
2022-09-07T04:53:33.741Z,1.40
2022-09-07T04:56:08.266Z,1.60
2022-09-07T04:58:43.085Z,2.07
2022-09-07T05:01:30.624Z,1.63
2022-09-07T05:04:22.604Z,2.20
2022-09-07T05:09:27.424Z,1.85
2022-09-07T05:12:01.350Z,1.50
2022-09-07T05:14:35.054Z,1.90
2022-09-07T05:17:09.113Z,1.93
2022-09-07T05:19:47.288Z,1.80
2022-09-07T05:22:22.230Z,1.70
2022-09-07T05:24:52.680Z,2.27
2022-09-07T05:27:22.048Z,1.47
2022-09-07T05:32:53.332Z,1.60
2022-09-07T05:35:26.700Z,1.87
2022-09-07T05:37:57.860Z,1.90
2022-09-07T05:40:30.359Z,1.90
2022-09-07T05:43:01.361Z,2.08
2022-09-07T05:45:32.976Z,1.95
2022-09-07T05:48:12.044Z,2.08
2022-09-07T05:50:41.441Z,1.63
2022-09-07T05:53:13.804Z,1.73
2022-09-07T05:55:45.007Z,2.15
2022-09-07T05:58:23.450Z,1.97
2022-09-07T06:01:15.767Z,2.22
2022-09-07T06:03:54.115Z,1.90
2022-09-07T06:06:24.173Z,2.28
2022-09-07T06:09:00.532Z,2.22
2022-09-07T06:11:34.076Z,2.15
2022-09-07T06:14:03.461Z,2.10
2022-09-07T06:16:38.226Z,2.30
2022-09-07T06:19:16.829Z,1.92
2022-09-07T06:21:48.707Z,2.33
2022-09-07T06:24:28.402Z,1.70
2022-09-07T06:26:57.010Z,2.10
2022-09-07T06:29:31.953Z,2.60
2022-09-07T06:34:58.428Z,2.42
2022-09-07T06:37:33.382Z,2.05
2022-09-07T06:40:09.635Z,2.03
2022-09-07T06:42:40.790Z,1.95
2022-09-07T06:45:15.441Z,2.47
2022-09-07T06:47:52.765Z,2.20
2022-09-07T06:50:24.546Z,2.03
2022-09-07T06:56:11.157Z,2.42
2022-09-07T06:58:45.108Z,2.90
2022-09-07T07:01:17.034Z,2.20
2022-09-07T07:03:48.181Z,2.63
2022-09-07T07:06:22.404Z,2.42
2022-09-07T07:09:00.991Z,2.05
2022-09-07T07:11:34.293Z,2.70
2022-09-07T07:14:11.794Z,2.22
2022-09-07T07:16:53.960Z,2.13
2022-09-07T07:19:31.790Z,2.15
2022-09-07T07:22:18.751Z,2.55
2022-09-07T07:24:56.867Z,1.90
2022-09-07T07:27:27.711Z,2.13
2022-09-07T07:29:58.906Z,2.17
2022-09-07T07:32:37.920Z,1.95
2022-09-07T07:35:11.542Z,2.28
2022-09-07T07:37:41.728Z,1.77
2022-09-07T07:40:19.187Z,1.75
2022-09-07T07:43:07.551Z,1.77
2022-09-07T07:45:59.193Z,1.98
2022-09-07T07:48:34.586Z,1.70
2022-09-07T07:51:11.820Z,2.05
2022-09-07T07:53:50.850Z,1.60
2022-09-07T07:56:28.855Z,1.95
2022-09-07T07:59:04.150Z,1.92
2022-09-07T08:01:38.774Z,1.80
2022-09-07T08:04:11.622Z,2.30
2022-09-07T08:06:53.713Z,2.03
2022-09-07T08:09:27.549Z,2.15
2022-09-07T08:11:56.716Z,1.95
2022-09-07T08:14:35.153Z,1.95
2022-09-07T08:17:11.743Z,1.92
2022-09-07T08:19:46.594Z,1.80
2022-09-07T08:22:34.719Z,2.33
2022-09-07T08:25:07.683Z,2.05
2022-09-07T08:27:40.106Z,1.88
2022-09-07T08:30:14.327Z,1.80
2022-09-07T08:32:53.106Z,1.95
2022-09-07T08:35:26.924Z,2.35
2022-09-07T08:40:48.247Z,1.75
2022-09-07T08:43:52.618Z,1.70
2022-09-07T08:46:37.099Z,2.00
2022-09-07T08:49:16.880Z,1.25
2022-09-07T08:51:57.170Z,1.95
2022-09-07T08:54:29.043Z,1.88
2022-09-07T09:00:11.650Z,1.63
2022-09-07T09:02:45.614Z,1.50
2022-09-07T09:05:48.977Z,1.40
2022-09-07T09:08:54.388Z,1.45
2022-09-07T09:11:42.745Z,1.20
2022-09-07T09:14:51.208Z,1.10
2022-09-07T09:17:56.197Z,1.10
2022-09-07T09:20:43.041Z,0.73
2022-09-07T09:23:16.300Z,1.10
2022-09-07T09:26:29.798Z,0.75
2022-09-07T09:29:12.596Z,0.60
2022-09-07T09:31:43.449Z,0.90
2022-09-07T09:34:24.124Z,0.93
2022-09-07T09:37:08.927Z,0.57
2022-09-07T09:39:45.532Z,0.95
2022-09-07T09:42:32.029Z,0.80
2022-09-07T09:45:11.774Z,0.52
2022-09-07T09:47:41.211Z,0.57
2022-09-07T09:53:48.540Z,1.02
2022-09-07T09:56:19.950Z,0.57
2022-09-07T10:04:47.241Z,0.45
2022-09-07T10:07:41.685Z,0.60
2022-09-07T10:10:25.451Z,0.60
2022-09-07T10:13:07.203Z,0.70
2022-09-07T10:15:41.368Z,0.75
2022-09-07T10:18:32.114Z,0.65
2022-09-07T10:21:40.928Z,0.85
2022-09-07T10:24:14.689Z,0.85
2022-09-07T10:26:54.792Z,0.80
2022-09-07T10:29:39.888Z,0.63
2022-09-07T10:32:40.050Z,1.02
2022-09-07T10:35:37.833Z,0.70
2022-09-07T10:38:29.267Z,0.43
2022-09-07T10:41:13.316Z,0.47
2022-09-07T10:43:50.676Z,0.52
2022-09-07T10:46:59.407Z,0.50
2022-09-07T10:53:40.731Z,0.82
2022-09-07T10:56:55.375Z,0.95
2022-09-07T11:00:11.072Z,0.98
2022-09-07T11:03:28.560Z,0.93
2022-09-07T11:06:25.961Z,0.80
2022-09-07T11:09:16.918Z,0.60
2022-09-07T11:12:07.055Z,1.10
2022-09-07T11:14:52.137Z,1.20
2022-09-07T11:18:10.596Z,0.70
2022-09-07T11:21:11.082Z,0.60
2022-09-07T11:24:28.645Z,0.52
2022-09-07T11:27:08.567Z,0.60
2022-09-07T11:30:42.669Z,0.63
2022-09-07T11:33:30.326Z,0.50
2022-09-07T11:36:14.315Z,0.50
2022-09-07T11:39:08.937Z,0.80
2022-09-07T11:41:50.970Z,0.63
2022-09-07T11:44:42.491Z,0.32
2022-09-07T11:47:51.809Z,0.60
2022-09-07T11:50:31.953Z,0.60
2022-09-07T11:56:36.944Z,0.98
2022-09-07T11:59:28.589Z,0.73
2022-09-07T12:02:42.110Z,0.85
2022-09-07T12:05:37.494Z,0.55
2022-09-07T12:08:12.093Z,0.50
2022-09-07T12:11:12.090Z,0.40
2022-09-07T12:14:05.417Z,0.50
2022-09-07T12:17:21.114Z,0.43
2022-09-07T12:20:33.330Z,0.63
2022-09-07T12:23:11.440Z,0.40
2022-09-07T12:25:48.983Z,0.50
2022-09-07T12:28:38.584Z,0.57
2022-09-07T12:31:19.316Z,0.60
2022-09-07T12:34:17.081Z,0.60
2022-09-07T12:36:51.492Z,0.40
2022-09-07T12:39:30.785Z,0.60
2022-09-07T12:42:37.168Z,0.47
2022-09-07T12:45:35.281Z,0.50
2022-09-07T12:48:14.135Z,0.38
2022-09-07T12:51:07.811Z,0.60
2022-09-07T12:54:10.720Z,0.38
2022-09-07T12:59:56.362Z,0.40
2022-09-07T13:03:06.200Z,0.40
2022-09-07T13:06:13.898Z,0.30
2022-09-07T13:09:03.356Z,0.50
2022-09-07T13:11:38.692Z,0.90
2022-09-07T13:14:17.122Z,0.75
2022-09-07T13:20:01.345Z,0.52
2022-09-07T13:22:49.074Z,0.55
2022-09-07T13:25:27.665Z,0.38
2022-09-07T13:28:35.316Z,0.30
2022-09-07T13:31:45.195Z,0.73
2022-09-07T13:34:47.662Z,0.43
2022-09-07T13:37:49.062Z,0.60
2022-09-07T13:40:27.304Z,0.50
2022-09-07T13:43:07.528Z,0.60
2022-09-07T13:46:01.978Z,0.60
2022-09-07T13:48:58.084Z,0.30
2022-09-07T13:51:46.012Z,0.93
2022-09-07T13:55:04.026Z,0.50
2022-09-07T13:58:13.432Z,0.60
2022-09-07T14:01:01.311Z,0.52
2022-09-07T14:04:09.952Z,0.40
2022-09-07T14:06:45.073Z,0.40
2022-09-07T14:09:22.181Z,0.30
2022-09-07T14:12:01.766Z,0.47
2022-09-07T14:14:33.262Z,0.50
2022-09-07T14:17:11.289Z,0.57
2022-09-07T14:19:52.731Z,0.50
2022-09-07T14:22:38.177Z,0.50
2022-09-07T14:25:12.347Z,0.50
2022-09-07T14:27:54.674Z,0.40
2022-09-07T14:30:42.725Z,0.50
2022-09-07T14:33:22.712Z,0.47
2022-09-07T14:36:09.362Z,0.40
2022-09-07T14:39:05.530Z,0.50
2022-09-07T14:41:40.426Z,0.40
2022-09-07T14:44:42.675Z,1.65
2022-09-07T14:47:41.391Z,0.30
2022-09-07T14:50:46.538Z,0.47
2022-09-07T14:53:40.687Z,0.47
2022-09-07T14:56:33.151Z,0.57
2022-09-07T14:59:07.216Z,0.40
2022-09-07T15:01:43.851Z,0.52
2022-09-07T15:04:25.467Z,0.57
2022-09-07T15:07:04.322Z,0.40
2022-09-07T15:09:44.803Z,0.65
2022-09-07T15:12:38.819Z,0.40
2022-09-07T15:15:55.688Z,0.50
2022-09-07T15:18:53.396Z,0.30
2022-09-07T15:21:40.156Z,0.32
2022-09-07T15:24:11.887Z,0.43
2022-09-07T15:27:04.326Z,0.38
2022-09-07T15:29:40.382Z,0.40
2022-09-07T15:32:21.354Z,0.70
2022-09-07T15:35:01.490Z,0.60
2022-09-07T15:40:28.144Z,0.35
2022-09-07T15:43:20.287Z,0.80
2022-09-07T15:45:52.756Z,0.50
2022-09-07T15:48:32.981Z,0.40
2022-09-07T15:52:04.677Z,0.35
2022-09-07T15:54:12.696Z,0.50
2022-09-07T15:57:47.662Z,0.30
2022-09-07T15:59:37.525Z,0.43
2022-09-07T16:03:04.622Z,0.80
2022-09-07T16:05:01.203Z,0.40
2022-09-07T16:10:25.310Z,0.90
2022-09-07T16:13:10.063Z,1.02
2022-09-07T16:15:51.893Z,0.35
2022-09-07T16:18:21.669Z,0.40
2022-09-07T16:20:59.924Z,0.77
2022-09-07T16:23:34.974Z,0.60
2022-09-07T16:26:08.879Z,0.57
2022-09-07T16:28:45.279Z,0.60
2022-09-07T16:31:26.746Z,0.30
2022-09-07T16:34:00.272Z,0.40
2022-09-07T16:36:34.417Z,0.65
2022-09-07T16:39:05.044Z,0.73
2022-09-07T16:41:38.214Z,0.45
2022-09-07T16:44:08.259Z,0.40
2022-09-07T16:46:41.087Z,0.57
2022-09-07T16:49:11.703Z,0.50
2022-09-07T16:51:43.175Z,0.50
2022-09-07T16:54:17.985Z,0.63
2022-09-07T16:56:45.718Z,0.90
2022-09-07T16:59:24.956Z,0.40
2022-09-07T17:02:04.529Z,0.45
2022-09-07T17:04:35.081Z,0.32
2022-09-07T17:07:07.506Z,0.60
2022-09-07T17:09:44.902Z,0.38
2022-09-07T17:12:22.484Z,0.55
2022-09-07T17:14:53.129Z,0.55
2022-09-07T17:17:33.748Z,0.30
2022-09-07T17:20:04.756Z,0.40
2022-09-07T17:22:39.223Z,0.40
2022-09-07T17:25:14.130Z,0.63
2022-09-07T17:27:47.713Z,0.30
2022-09-07T17:30:16.172Z,0.70
2022-09-07T17:32:47.478Z,0.77
2022-09-07T17:35:24.138Z,0.80
2022-09-07T17:39:14.263Z,0.35
2022-09-07T17:40:58.724Z,0.40
2022-09-07T17:43:45.258Z,0.95
2022-09-07T17:46:21.660Z,0.40
2022-09-07T17:49:03.933Z,0.43
2022-09-07T17:51:35.030Z,0.55
2022-09-07T17:54:10.962Z,0.40
2022-09-07T17:56:45.188Z,0.57
2022-09-07T18:02:15.488Z,0.73
2022-09-07T18:04:52.466Z,0.30
2022-09-07T18:07:25.445Z,0.60
2022-09-07T18:09:55.484Z,0.63
2022-09-07T18:12:26.713Z,0.50
2022-09-07T18:14:58.429Z,0.55
2022-09-07T18:17:34.619Z,0.35
2022-09-07T18:20:24.430Z,0.30
2022-09-07T18:25:36.842Z,0.60
2022-09-07T18:31:12.035Z,0.60
2022-09-07T18:33:48.397Z,0.70
2022-09-07T18:36:21.925Z,0.55
2022-09-07T18:38:52.874Z,0.47
2022-09-07T18:41:21.622Z,0.40
2022-09-07T18:43:57.433Z,0.73
2022-09-07T18:46:28.286Z,0.73
2022-09-07T18:49:07.856Z,0.80
2022-09-07T18:54:40.297Z,0.73
2022-09-07T18:59:53.434Z,0.50
2022-09-07T19:02:26.279Z,0.52
2022-09-07T19:08:05.709Z,0.30
2022-09-07T19:10:45.063Z,0.68
2022-09-07T19:13:18.772Z,0.68
2022-09-07T19:15:50.386Z,0.60
2022-09-07T19:18:34.454Z,0.45
2022-09-07T19:21:16.579Z,0.98
2022-09-07T19:24:04.985Z,0.60
2022-09-07T19:26:40.338Z,0.82
2022-09-07T19:29:18.826Z,0.80
2022-09-07T19:32:05.075Z,0.82
2022-09-07T19:34:40.984Z,0.65
2022-09-07T19:37:40.340Z,0.75
2022-09-07T19:40:18.992Z,0.40
2022-09-07T19:42:58.370Z,1.00
2022-09-07T19:45:36.231Z,0.50
2022-09-07T19:50:53.847Z,0.77
2022-09-07T19:53:25.606Z,0.90
2022-09-07T19:56:01.466Z,0.60
2022-09-07T19:58:33.307Z,0.68
2022-09-07T20:01:24.351Z,0.60
2022-09-07T20:06:52.207Z,1.33
2022-09-07T20:09:33.507Z,0.82
2022-09-07T20:12:07.802Z,1.17
2022-09-07T20:14:44.137Z,0.90
2022-09-07T20:17:14.047Z,1.30
2022-09-07T20:19:55.587Z,1.08
2022-09-07T20:25:13.077Z,0.93
2022-09-07T20:27:50.427Z,1.20
2022-09-07T20:30:31.342Z,1.00
2022-09-07T20:33:06.152Z,1.10
2022-09-07T20:35:50.155Z,1.45
2022-09-07T20:38:31.551Z,0.98
2022-09-07T20:41:02.683Z,0.90
2022-09-07T20:43:40.161Z,0.73
2022-09-07T20:46:11.292Z,0.85
2022-09-07T20:49:14.150Z,0.95
2022-09-07T20:51:44.721Z,1.20
2022-09-07T20:54:17.591Z,0.80
2022-09-07T20:56:52.061Z,0.98
2022-09-07T20:59:22.101Z,0.80
2022-09-07T21:01:52.781Z,1.00
2022-09-07T21:04:26.784Z,0.75
2022-09-07T21:07:01.365Z,1.10
2022-09-07T21:09:42.437Z,0.75
2022-09-07T21:12:13.363Z,0.63
2022-09-07T21:14:48.099Z,0.95
2022-09-07T21:17:19.296Z,0.40
2022-09-07T21:19:57.451Z,0.80
2022-09-07T21:22:33.994Z,1.42
2022-09-07T21:25:18.380Z,0.80
2022-09-07T21:27:52.638Z,0.93
2022-09-07T21:30:22.066Z,0.90
2022-09-07T21:33:05.324Z,0.47
2022-09-07T21:35:35.826Z,0.60
2022-09-07T21:38:07.222Z,0.80
2022-09-07T21:40:37.682Z,0.95
2022-09-07T21:43:13.856Z,0.50
2022-09-07T21:45:47.153Z,0.85
2022-09-07T21:48:19.038Z,0.63
2022-09-07T21:50:50.562Z,0.75
2022-09-07T21:53:24.992Z,0.70
2022-09-07T21:56:00.826Z,0.60
2022-09-07T22:01:19.134Z,0.57
2022-09-07T22:04:01.058Z,0.85
2022-09-07T22:06:43.609Z,0.73
2022-09-07T22:09:16.003Z,0.80
2022-09-07T22:12:01.273Z,0.85
2022-09-07T22:14:38.775Z,0.95
2022-09-07T22:17:12.676Z,0.77
2022-09-07T22:19:45.089Z,0.77
2022-09-07T22:22:47.107Z,0.70
2022-09-07T22:25:15.752Z,0.80
2022-09-07T22:27:46.432Z,1.00
2022-09-07T22:30:21.234Z,0.80
2022-09-07T22:32:58.014Z,0.68
2022-09-07T22:35:28.204Z,0.68
2022-09-07T22:38:02.526Z,0.82
2022-09-07T22:40:34.072Z,0.77
2022-09-07T22:45:49.747Z,0.63
2022-09-07T22:48:21.109Z,1.00
2022-09-07T22:50:59.476Z,0.90
2022-09-07T22:53:31.263Z,1.00
2022-09-07T22:56:08.104Z,0.88
2022-09-07T22:58:38.955Z,0.60
2022-09-07T23:01:15.071Z,0.93
2022-09-07T23:03:48.222Z,1.00
2022-09-07T23:06:36.444Z,0.98
2022-09-07T23:09:14.382Z,0.73
2022-09-07T23:12:04.250Z,0.73
2022-09-07T23:14:35.154Z,0.88
2022-09-07T23:17:13.634Z,0.65
2022-09-07T23:19:45.576Z,1.02
2022-09-07T23:22:16.181Z,0.70
2022-09-07T23:24:53.650Z,0.80
2022-09-07T23:27:34.698Z,0.80
2022-09-07T23:30:07.756Z,1.00
2022-09-07T23:32:50.022Z,0.63
2022-09-07T23:35:25.807Z,0.70
2022-09-07T23:37:57.347Z,0.50
2022-09-07T23:40:39.739Z,1.00
2022-09-07T23:43:27.082Z,0.55
2022-09-07T23:48:50.510Z,0.85
2022-09-07T23:51:24.232Z,0.90
2022-09-07T23:53:54.436Z,0.90
2022-09-07T23:56:30.587Z,0.70
2022-09-07T23:59:03.358Z,0.68
